Airfield :
LOGIN :

Register | Disclaimer

   EN    FR    IT 

 










Legend :    VFR   Marginal VFR   IFR   Intensive IFR   Very Intensive IFR
Visi :
Ceiling :
>= 8 km
>= 3000ft
5 to 8 km
1000 to 3000 ft
1500m to 5 km
500 to 1000 ft
800 to 1500m
200 to 500 ft
< 800m
< 200 ft
Symbols :   Thunderstorms  Fog  Heavy snow  Heavy precipitations  Wind > 20 kt
SIGMETs :     Misc.  Thunderstorms  Icing  Turbulence  Mountain Waves  Volcanic Ashes






- Airport Elevation : 461 ft
- IATA code : WIE


ETOU - Wiesbaden Army

CURRENT METAR :
  • 282155Z AUTO 00000KT 9999 CLR 02/00 A3015 RMK AO2 SLP216 T00230002 $

EXPIRED METARs :
  • 282055Z AUTO 00000KT 9999 SCT180 04/01 A3017 RMK AO2 SLP223 T00370007 55001 $
  • 281955Z AUTO 00000KT 9999 SCT190 05/00 A3016 RMK AO2 SLP220 T00520004 $
  • 281855Z AUTO 00000KT 9999 BKN200 08/M00 A3016 RMK AO2 SLP219 T00751002 $
  • 281755Z AUTO 00000KT 9999 CLR 07/00 A3017 RMK AO2 SLP223 60000 T00720002 10102 20068 55000 $
  • 281655Z AUTO 18003KT 9999 CLR 09/01 A3016 RMK AO2 SLP219 T00860013

TAF AMD TAF ETOU
Valid from the 28 at 20:00 until the 29 at 19:00 UTC


282055Z 2820/2919 VRB06KT 9999 FEW020 SCT280 QNH3005INS
BECMG 2904/2905 VRB06KT 9000 BR SCT006 BKN015 BKN020 QNH2997INS
TEMPO 2905/2910 8000 BR BKN006 OVC012
BECMG 2911/2912 VRB06KT 9000 BR FEW006 SCT015 QNH2991INS
BECMG 2913/2914 18012KT 9999 NSW FEW030 SCT280 QNH2977INS TX09/2915Z TN00/2906Z



MET'MAP, your aeronautical weather chart ! - Copyright ORBIFLY December 2007 - Disclaimer

ORBIFLY MET'MAP TEAM :

Programming & Development : Alexandra Zaïnal
Original concept : Baudouin d'Aumeries
Technical & hardware support : Manuel Goepfert
Assistance : Marc-Olivier Méhu




SOURCES & CREDITS :

   NOAA